Washington, District of Columbia
Current Conditions -  °F | °C
As of 4:52 AM on Saturday 22 Nov 2014 (Local Time) from KDCA Reporting Station
Clear Clear  
Wind Chill: -6°   Ceiling: Unl
Heat Index: -3°   Visibility: 10mi
Dew Point: -8°   Wind: 5mph
Humidity: 66%   Direction: 200°SSW
Pressure: 30.55"   Gusts: NA
Location:  38.89°N, 77.03°W
Report Text: KDCA 220952Z 20004KT 10SM CLR M03/M08 A3055 RMK AO2 SLP345 T10281083
Loading
Personal Weather Stations






























Interactive Weather Map New forecast layout! Learn more

10-Day Weather Forecast

Advertisements
Track Severe Weather on mobile